首页
METAR-TAF:

METAR-TAF

机场 :

Fort Dodge, 艾奥瓦州, 美国

纬度: 42-33N, 经度: 094-11W, 海拔: 354米

当前天气观测

该预报发布于9分钟前的20:56 UTC
风速3节,风向西北
温度 -4°C
湿度 74%
气压 1022 hPa
能見度: 16.1公里
少量云层高于2000英尺
阴天层高于4900英尺

METAR: KFOD 292056Z AUTO 31003KT 10SM FEW020 OVC049 M04/M08 A3017 RMK AO2 SLP266 T10441083 56008 FZRANO

时间: 15:05 (21:05 UTC)

预报

该预报发布于2小时和16分钟前的18:49 UTC
预报有效从29日的 19点(UTC)到 30日的 18点(UTC)
风速5节,风向多变
能見度: 10公里
阴天层高于3000英尺
从 29日的 2300点(UTC)
风速4节,风向
能見度: 10公里
阴天层高于1500英尺

TAF: KFOD 291849Z 2919/3018 VRB05KT P6SM OVC030 FM292300 18004KT P6SM OVC015

超过4000个机场的气象观测和天气预报(METAR&TAF报告)。

可查询的气象台以黄色和红色小点在地图上表示。

将鼠标移到小点上方,可查看气象台名称。

然后点击查看天气观测和预报。

如需切换地图:点击带黑十字的绿色按钮放大地图;点击带横线的绿色按钮缩小地图;或者点击绿色箭头查看邻近地区的地图。


METAR-TAF: